sensor_id;sensor_type;location;lat;lon;timestamp;P1;durP1;ratioP1;P2;durP2;ratioP2
3443;SDS011;1736;52.068;6.968;2023-03-19T00:01:53;18.57;;;12.80;;
3443;SDS011;1736;52.068;6.968;2023-03-19T00:04:20;17.73;;;12.97;;
3443;SDS011;1736;52.068;6.968;2023-03-19T00:06:48;18.47;;;12.80;;
3443;SDS011;1736;52.068;6.968;2023-03-19T00:09:15;22.23;;;13.20;;
3443;SDS011;1736;52.068;6.968;2023-03-19T00:11:42;15.93;;;12.13;;
3443;SDS011;1736;52.068;6.968;2023-03-19T00:14:10;16.70;;;11.93;;
3443;SDS011;1736;52.068;6.968;2023-03-19T00:16:36;21.33;;;14.10;;
3443;SDS011;1736;52.068;6.968;2023-03-19T00:19:03;18.20;;;12.97;;
3443;SDS011;1736;52.068;6.968;2023-03-19T00:21:30;14.17;;;11.00;;
3443;SDS011;1736;52.068;6.968;2023-03-19T00:23:57;13.03;;;9.53;;
3443;SDS011;1736;52.068;6.968;2023-03-19T00:26:26;13.10;;;9.60;;
3443;SDS011;1736;52.068;6.968;2023-03-19T00:28:53;13.90;;;10.03;;
3443;SDS011;1736;52.068;6.968;2023-03-19T00:31:21;15.80;;;10.20;;
3443;SDS011;1736;52.068;6.968;2023-03-19T00:33:47;16.40;;;10.83;;
3443;SDS011;1736;52.068;6.968;2023-03-19T00:36:14;14.83;;;11.03;;
3443;SDS011;1736;52.068;6.968;2023-03-19T00:38:41;16.10;;;10.47;;
3443;SDS011;1736;52.068;6.968;2023-03-19T00:41:08;15.93;;;10.70;;
3443;SDS011;1736;52.068;6.968;2023-03-19T00:43:35;12.50;;;10.43;;
3443;SDS011;1736;52.068;6.968;2023-03-19T00:46:02;15.83;;;10.60;;
3443;SDS011;1736;52.068;6.968;2023-03-19T00:48:30;11.10;;;9.00;;
3443;SDS011;1736;52.068;6.968;2023-03-19T00:51:00;15.47;;;9.77;;
3443;SDS011;1736;52.068;6.968;2023-03-19T00:53:28;15.13;;;10.90;;
3443;SDS011;1736;52.068;6.968;2023-03-19T00:55:54;15.40;;;9.63;;
3443;SDS011;1736;52.068;6.968;2023-03-19T00:58:21;15.30;;;9.97;;
3443;SDS011;1736;52.068;6.968;2023-03-19T01:00:47;11.27;;;9.23;;
3443;SDS011;1736;52.068;6.968;2023-03-19T01:03:17;13.33;;;9.83;;
3443;SDS011;1736;52.068;6.968;2023-03-19T01:05:47;14.73;;;9.73;;
3443;SDS011;1736;52.068;6.968;2023-03-19T01:08:14;13.80;;;9.63;;
3443;SDS011;1736;52.068;6.968;2023-03-19T01:10:40;17.37;;;9.03;;
3443;SDS011;1736;52.068;6.968;2023-03-19T01:13:07;13.57;;;9.60;;
3443;SDS011;1736;52.068;6.968;2023-03-19T01:15:34;12.77;;;8.87;;
3443;SDS011;1736;52.068;6.968;2023-03-19T01:18:01;14.60;;;9.07;;
3443;SDS011;1736;52.068;6.968;2023-03-19T01:20:28;14.83;;;9.10;;
3443;SDS011;1736;52.068;6.968;2023-03-19T01:22:55;16.60;;;9.50;;
3443;SDS011;1736;52.068;6.968;2023-03-19T01:25:22;14.07;;;9.70;;
3443;SDS011;1736;52.068;6.968;2023-03-19T01:27:49;12.23;;;8.90;;
3443;SDS011;1736;52.068;6.968;2023-03-19T01:30:16;17.43;;;9.30;;
3443;SDS011;1736;52.068;6.968;2023-03-19T01:32:43;13.67;;;9.77;;
3443;SDS011;1736;52.068;6.968;2023-03-19T01:35:10;12.53;;;9.60;;
3443;SDS011;1736;52.068;6.968;2023-03-19T01:37:36;14.27;;;8.97;;
3443;SDS011;1736;52.068;6.968;2023-03-19T01:40:05;15.00;;;9.10;;
3443;SDS011;1736;52.068;6.968;2023-03-19T01:42:33;13.13;;;9.37;;
3443;SDS011;1736;52.068;6.968;2023-03-19T01:45:00;14.37;;;9.70;;
3443;SDS011;1736;52.068;6.968;2023-03-19T01:47:29;11.63;;;8.83;;
3443;SDS011;1736;52.068;6.968;2023-03-19T01:49:58;16.20;;;9.73;;
3443;SDS011;1736;52.068;6.968;2023-03-19T01:52:26;11.43;;;8.50;;
3443;SDS011;1736;52.068;6.968;2023-03-19T01:54:56;10.43;;;8.57;;
3443;SDS011;1736;52.068;6.968;2023-03-19T01:57:28;10.53;;;8.07;;
3443;SDS011;1736;52.068;6.968;2023-03-19T01:59:56;11.50;;;8.30;;
3443;SDS011;1736;52.068;6.968;2023-03-19T02:02:27;11.87;;;7.97;;
3443;SDS011;1736;52.068;6.968;2023-03-19T02:04:55;9.53;;;7.30;;
3443;SDS011;1736;52.068;6.968;2023-03-19T02:07:26;8.97;;;7.53;;
3443;SDS011;1736;52.068;6.968;2023-03-19T02:09:54;9.80;;;7.50;;
3443;SDS011;1736;52.068;6.968;2023-03-19T02:12:21;8.70;;;7.73;;
3443;SDS011;1736;52.068;6.968;2023-03-19T02:14:49;16.13;;;7.97;;
3443;SDS011;1736;52.068;6.968;2023-03-19T02:17:15;10.23;;;7.10;;
3443;SDS011;1736;52.068;6.968;2023-03-19T02:19:44;7.93;;;7.13;;
3443;SDS011;1736;52.068;6.968;2023-03-19T02:22:15;10.00;;;7.70;;
3443;SDS011;1736;52.068;6.968;2023-03-19T02:24:47;10.57;;;7.60;;
3443;SDS011;1736;52.068;6.968;2023-03-19T02:27:18;8.07;;;6.93;;
3443;SDS011;1736;52.068;6.968;2023-03-19T02:29:45;8.90;;;7.33;;
3443;SDS011;1736;52.068;6.968;2023-03-19T02:32:12;10.90;;;8.30;;
3443;SDS011;1736;52.068;6.968;2023-03-19T02:34:39;9.13;;;7.60;;
3443;SDS011;1736;52.068;6.968;2023-03-19T02:37:08;9.87;;;7.80;;
3443;SDS011;1736;52.068;6.968;2023-03-19T02:39:40;11.90;;;8.13;;
3443;SDS011;1736;52.068;6.968;2023-03-19T02:42:12;10.30;;;8.37;;
3443;SDS011;1736;52.068;6.968;2023-03-19T02:44:42;10.33;;;7.87;;
3443;SDS011;1736;52.068;6.968;2023-03-19T02:47:08;12.00;;;8.00;;
3443;SDS011;1736;52.068;6.968;2023-03-19T02:49:35;10.73;;;7.70;;
3443;SDS011;1736;52.068;6.968;2023-03-19T02:52:01;10.63;;;8.00;;
3443;SDS011;1736;52.068;6.968;2023-03-19T02:54:28;12.83;;;8.73;;
3443;SDS011;1736;52.068;6.968;2023-03-19T02:56:55;10.60;;;8.40;;
3443;SDS011;1736;52.068;6.968;2023-03-19T02:59:21;9.80;;;8.63;;
3443;SDS011;1736;52.068;6.968;2023-03-19T03:01:49;11.40;;;8.37;;
3443;SDS011;1736;52.068;6.968;2023-03-19T03:04:16;15.47;;;9.37;;
3443;SDS011;1736;52.068;6.968;2023-03-19T03:06:43;12.50;;;8.77;;
3443;SDS011;1736;52.068;6.968;2023-03-19T03:09:10;11.47;;;8.90;;
3443;SDS011;1736;52.068;6.968;2023-03-19T03:11:37;10.57;;;8.10;;
3443;SDS011;1736;52.068;6.968;2023-03-19T03:14:05;11.97;;;8.40;;
3443;SDS011;1736;52.068;6.968;2023-03-19T03:16:32;10.90;;;8.20;;
3443;SDS011;1736;52.068;6.968;2023-03-19T03:19:00;13.27;;;8.83;;
3443;SDS011;1736;52.068;6.968;2023-03-19T03:21:27;9.87;;;8.10;;
3443;SDS011;1736;52.068;6.968;2023-03-19T03:23:54;12.73;;;9.00;;
3443;SDS011;1736;52.068;6.968;2023-03-19T03:26:20;14.27;;;8.50;;
3443;SDS011;1736;52.068;6.968;2023-03-19T03:28:47;9.63;;;7.53;;
3443;SDS011;1736;52.068;6.968;2023-03-19T03:31:13;11.50;;;8.43;;
3443;SDS011;1736;52.068;6.968;2023-03-19T03:33:40;12.00;;;8.77;;
3443;SDS011;1736;52.068;6.968;2023-03-19T03:36:08;13.70;;;10.30;;
3443;SDS011;1736;52.068;6.968;2023-03-19T03:38:36;11.73;;;8.80;;
3443;SDS011;1736;52.068;6.968;2023-03-19T03:41:04;10.60;;;8.20;;
3443;SDS011;1736;52.068;6.968;2023-03-19T03:43:30;11.97;;;8.63;;
3443;SDS011;1736;52.068;6.968;2023-03-19T03:45:57;14.90;;;9.07;;
3443;SDS011;1736;52.068;6.968;2023-03-19T03:48:24;14.10;;;8.50;;
3443;SDS011;1736;52.068;6.968;2023-03-19T03:50:51;11.70;;;8.43;;
3443;SDS011;1736;52.068;6.968;2023-03-19T03:53:18;11.30;;;8.43;;
3443;SDS011;1736;52.068;6.968;2023-03-19T03:55:45;11.47;;;9.70;;
3443;SDS011;1736;52.068;6.968;2023-03-19T03:58:12;12.23;;;8.50;;
3443;SDS011;1736;52.068;6.968;2023-03-19T04:00:38;12.50;;;9.17;;
3443;SDS011;1736;52.068;6.968;2023-03-19T04:03:05;10.17;;;9.03;;
3443;SDS011;1736;52.068;6.968;2023-03-19T04:05:31;11.13;;;8.80;;
3443;SDS011;1736;52.068;6.968;2023-03-19T04:07:58;12.00;;;8.87;;
3443;SDS011;1736;52.068;6.968;2023-03-19T04:10:26;13.20;;;9.40;;
3443;SDS011;1736;52.068;6.968;2023-03-19T04:12:53;12.93;;;9.07;;
3443;SDS011;1736;52.068;6.968;2023-03-19T04:15:19;13.57;;;9.50;;
3443;SDS011;1736;52.068;6.968;2023-03-19T04:17:46;12.93;;;9.70;;
3443;SDS011;1736;52.068;6.968;2023-03-19T04:20:13;19.00;;;10.23;;
3443;SDS011;1736;52.068;6.968;2023-03-19T04:22:40;14.67;;;9.03;;
3443;SDS011;1736;52.068;6.968;2023-03-19T04:25:07;12.50;;;9.57;;
3443;SDS011;1736;52.068;6.968;2023-03-19T04:27:35;14.20;;;9.80;;
3443;SDS011;1736;52.068;6.968;2023-03-19T04:30:02;13.63;;;9.57;;
3443;SDS011;1736;52.068;6.968;2023-03-19T04:32:29;14.10;;;10.20;;
3443;SDS011;1736;52.068;6.968;2023-03-19T04:34:57;12.53;;;9.80;;
3443;SDS011;1736;52.068;6.968;2023-03-19T04:37:24;15.07;;;11.13;;
3443;SDS011;1736;52.068;6.968;2023-03-19T04:39:51;13.70;;;9.80;;
3443;SDS011;1736;52.068;6.968;2023-03-19T04:42:18;16.90;;;9.80;;
3443;SDS011;1736;52.068;6.968;2023-03-19T04:44:46;17.87;;;10.00;;
3443;SDS011;1736;52.068;6.968;2023-03-19T04:47:13;14.20;;;9.03;;
3443;SDS011;1736;52.068;6.968;2023-03-19T04:49:40;14.90;;;9.50;;
3443;SDS011;1736;52.068;6.968;2023-03-19T04:52:06;12.87;;;9.13;;
3443;SDS011;1736;52.068;6.968;2023-03-19T04:54:33;9.17;;;7.80;;
3443;SDS011;1736;52.068;6.968;2023-03-19T04:57:00;14.03;;;7.93;;
3443;SDS011;1736;52.068;6.968;2023-03-19T04:59:26;9.77;;;7.63;;
3443;SDS011;1736;52.068;6.968;2023-03-19T05:01:54;10.80;;;7.90;;
3443;SDS011;1736;52.068;6.968;2023-03-19T05:04:21;10.23;;;7.40;;
3443;SDS011;1736;52.068;6.968;2023-03-19T05:06:49;8.30;;;7.10;;
3443;SDS011;1736;52.068;6.968;2023-03-19T05:09:15;10.17;;;7.27;;
3443;SDS011;1736;52.068;6.968;2023-03-19T05:11:42;9.37;;;7.20;;
3443;SDS011;1736;52.068;6.968;2023-03-19T05:14:08;10.13;;;7.10;;
3443;SDS011;1736;52.068;6.968;2023-03-19T05:16:35;10.30;;;7.63;;
3443;SDS011;1736;52.068;6.968;2023-03-19T05:19:03;7.80;;;6.77;;
3443;SDS011;1736;52.068;6.968;2023-03-19T05:21:29;12.30;;;7.47;;
3443;SDS011;1736;52.068;6.968;2023-03-19T05:23:56;9.47;;;7.10;;
3443;SDS011;1736;52.068;6.968;2023-03-19T05:26:22;14.77;;;7.60;;
3443;SDS011;1736;52.068;6.968;2023-03-19T05:28:49;9.87;;;7.10;;
3443;SDS011;1736;52.068;6.968;2023-03-19T05:31:16;9.40;;;7.20;;
3443;SDS011;1736;52.068;6.968;2023-03-19T05:33:42;8.40;;;6.47;;
3443;SDS011;1736;52.068;6.968;2023-03-19T05:36:10;8.83;;;7.27;;
3443;SDS011;1736;52.068;6.968;2023-03-19T05:38:37;8.47;;;7.37;;
3443;SDS011;1736;52.068;6.968;2023-03-19T05:41:05;11.23;;;6.83;;
3443;SDS011;1736;52.068;6.968;2023-03-19T05:43:32;7.90;;;7.10;;
3443;SDS011;1736;52.068;6.968;2023-03-19T05:45:59;11.13;;;7.73;;
3443;SDS011;1736;52.068;6.968;2023-03-19T05:48:25;9.60;;;7.00;;
3443;SDS011;1736;52.068;6.968;2023-03-19T05:50:52;8.90;;;7.20;;
3443;SDS011;1736;52.068;6.968;2023-03-19T05:53:20;18.13;;;8.67;;
3443;SDS011;1736;52.068;6.968;2023-03-19T05:55:47;7.70;;;6.93;;
3443;SDS011;1736;52.068;6.968;2023-03-19T05:58:14;9.60;;;6.93;;
3443;SDS011;1736;52.068;6.968;2023-03-19T06:00:40;9.30;;;7.33;;
3443;SDS011;1736;52.068;6.968;2023-03-19T06:03:07;7.57;;;6.73;;
3443;SDS011;1736;52.068;6.968;2023-03-19T06:05:34;8.63;;;7.23;;
3443;SDS011;1736;52.068;6.968;2023-03-19T06:08:00;9.50;;;7.63;;
3443;SDS011;1736;52.068;6.968;2023-03-19T06:10:28;9.03;;;7.73;;
3443;SDS011;1736;52.068;6.968;2023-03-19T06:12:55;12.80;;;7.90;;
3443;SDS011;1736;52.068;6.968;2023-03-19T06:15:21;12.17;;;7.17;;
3443;SDS011;1736;52.068;6.968;2023-03-19T06:17:48;10.03;;;7.97;;
3443;SDS011;1736;52.068;6.968;2023-03-19T06:20:15;12.67;;;7.40;;
3443;SDS011;1736;52.068;6.968;2023-03-19T06:22:42;7.77;;;6.97;;
3443;SDS011;1736;52.068;6.968;2023-03-19T06:25:09;10.00;;;7.87;;
3443;SDS011;1736;52.068;6.968;2023-03-19T06:27:37;10.90;;;8.07;;
3443;SDS011;1736;52.068;6.968;2023-03-19T06:30:04;11.13;;;8.50;;
3443;SDS011;1736;52.068;6.968;2023-03-19T06:32:31;17.60;;;8.33;;
3443;SDS011;1736;52.068;6.968;2023-03-19T06:34:58;19.73;;;9.27;;
3443;SDS011;1736;52.068;6.968;2023-03-19T06:37:25;11.63;;;8.50;;
3443;SDS011;1736;52.068;6.968;2023-03-19T06:39:52;13.53;;;8.77;;
3443;SDS011;1736;52.068;6.968;2023-03-19T06:42:18;15.83;;;9.47;;
3443;SDS011;1736;52.068;6.968;2023-03-19T06:44:46;14.27;;;9.43;;
3443;SDS011;1736;52.068;6.968;2023-03-19T06:47:13;11.90;;;8.80;;
3443;SDS011;1736;52.068;6.968;2023-03-19T06:49:40;12.10;;;8.80;;
3443;SDS011;1736;52.068;6.968;2023-03-19T06:52:07;9.97;;;8.30;;
3443;SDS011;1736;52.068;6.968;2023-03-19T06:54:33;12.63;;;8.67;;
3443;SDS011;1736;52.068;6.968;2023-03-19T06:57:00;14.80;;;8.90;;
3443;SDS011;1736;52.068;6.968;2023-03-19T06:59:27;18.40;;;9.63;;
3443;SDS011;1736;52.068;6.968;2023-03-19T07:01:55;11.97;;;9.10;;
3443;SDS011;1736;52.068;6.968;2023-03-19T07:04:21;11.97;;;9.50;;
3443;SDS011;1736;52.068;6.968;2023-03-19T07:06:48;10.43;;;8.93;;
3443;SDS011;1736;52.068;6.968;2023-03-19T07:09:14;20.00;;;9.60;;
3443;SDS011;1736;52.068;6.968;2023-03-19T07:11:41;14.90;;;10.10;;
3443;SDS011;1736;52.068;6.968;2023-03-19T07:14:07;14.07;;;9.57;;
3443;SDS011;1736;52.068;6.968;2023-03-19T07:16:34;15.00;;;9.97;;
3443;SDS011;1736;52.068;6.968;2023-03-19T07:19:02;13.23;;;9.57;;
3443;SDS011;1736;52.068;6.968;2023-03-19T07:21:29;15.77;;;10.03;;
3443;SDS011;1736;52.068;6.968;2023-03-19T07:23:55;16.80;;;10.20;;
3443;SDS011;1736;52.068;6.968;2023-03-19T07:26:22;17.83;;;10.33;;
3443;SDS011;1736;52.068;6.968;2023-03-19T07:28:48;15.33;;;10.10;;
3443;SDS011;1736;52.068;6.968;2023-03-19T07:31:15;11.97;;;9.40;;
3443;SDS011;1736;52.068;6.968;2023-03-19T07:33:42;16.43;;;9.57;;
3443;SDS011;1736;52.068;6.968;2023-03-19T07:36:10;13.20;;;9.40;;
3443;SDS011;1736;52.068;6.968;2023-03-19T07:38:37;12.37;;;9.03;;
3443;SDS011;1736;52.068;6.968;2023-03-19T07:41:03;15.33;;;10.10;;
3443;SDS011;1736;52.068;6.968;2023-03-19T07:43:30;16.13;;;9.37;;
3443;SDS011;1736;52.068;6.968;2023-03-19T07:45:57;10.13;;;8.20;;
3443;SDS011;1736;52.068;6.968;2023-03-19T07:48:24;13.57;;;9.43;;
3443;SDS011;1736;52.068;6.968;2023-03-19T07:50:50;12.00;;;8.60;;
3443;SDS011;1736;52.068;6.968;2023-03-19T07:53:19;14.37;;;9.40;;
3443;SDS011;1736;52.068;6.968;2023-03-19T07:55:46;15.07;;;10.10;;
3443;SDS011;1736;52.068;6.968;2023-03-19T07:58:13;12.23;;;8.57;;
3443;SDS011;1736;52.068;6.968;2023-03-19T08:00:40;14.90;;;10.23;;
3443;SDS011;1736;52.068;6.968;2023-03-19T08:03:08;16.27;;;9.50;;
3443;SDS011;1736;52.068;6.968;2023-03-19T08:05:35;18.03;;;10.00;;
3443;SDS011;1736;52.068;6.968;2023-03-19T08:08:02;14.13;;;9.67;;
3443;SDS011;1736;52.068;6.968;2023-03-19T08:10:30;17.50;;;10.00;;
3443;SDS011;1736;52.068;6.968;2023-03-19T08:12:57;16.87;;;10.40;;
3443;SDS011;1736;52.068;6.968;2023-03-19T08:15:24;14.60;;;10.40;;
3443;SDS011;1736;52.068;6.968;2023-03-19T08:17:56;12.90;;;9.67;;
3443;SDS011;1736;52.068;6.968;2023-03-19T08:20:23;14.53;;;10.00;;
3443;SDS011;1736;52.068;6.968;2023-03-19T08:22:49;18.70;;;9.87;;
3443;SDS011;1736;52.068;6.968;2023-03-19T08:25:16;15.90;;;9.90;;
3443;SDS011;1736;52.068;6.968;2023-03-19T08:27:44;14.17;;;10.80;;
3443;SDS011;1736;52.068;6.968;2023-03-19T08:30:11;12.00;;;9.53;;
3443;SDS011;1736;52.068;6.968;2023-03-19T08:32:38;12.53;;;9.30;;
3443;SDS011;1736;52.068;6.968;2023-03-19T08:35:05;14.73;;;8.87;;
3443;SDS011;1736;52.068;6.968;2023-03-19T08:37:32;13.70;;;9.57;;
3443;SDS011;1736;52.068;6.968;2023-03-19T08:39:59;13.40;;;8.73;;
3443;SDS011;1736;52.068;6.968;2023-03-19T08:42:25;14.47;;;10.00;;
3443;SDS011;1736;52.068;6.968;2023-03-19T08:44:54;13.00;;;9.40;;
3443;SDS011;1736;52.068;6.968;2023-03-19T08:47:20;15.10;;;9.20;;
3443;SDS011;1736;52.068;6.968;2023-03-19T08:49:48;14.43;;;8.70;;
3443;SDS011;1736;52.068;6.968;2023-03-19T08:52:15;11.07;;;8.73;;
3443;SDS011;1736;52.068;6.968;2023-03-19T08:54:41;12.80;;;9.50;;
3443;SDS011;1736;52.068;6.968;2023-03-19T08:57:08;9.67;;;7.87;;
3443;SDS011;1736;52.068;6.968;2023-03-19T08:59:35;10.57;;;8.80;;
3443;SDS011;1736;52.068;6.968;2023-03-19T09:02:03;11.83;;;7.80;;
3443;SDS011;1736;52.068;6.968;2023-03-19T09:04:29;8.27;;;7.33;;
3443;SDS011;1736;52.068;6.968;2023-03-19T09:07:00;9.17;;;6.93;;
3443;SDS011;1736;52.068;6.968;2023-03-19T09:09:27;8.00;;;6.47;;
3443;SDS011;1736;52.068;6.968;2023-03-19T09:11:53;8.73;;;5.90;;
3443;SDS011;1736;52.068;6.968;2023-03-19T09:14:20;8.10;;;6.00;;
3443;SDS011;1736;52.068;6.968;2023-03-19T09:16:47;6.67;;;5.90;;
3443;SDS011;1736;52.068;6.968;2023-03-19T09:19:15;9.23;;;7.13;;
3443;SDS011;1736;52.068;6.968;2023-03-19T09:21:42;7.43;;;5.90;;
3443;SDS011;1736;52.068;6.968;2023-03-19T09:24:09;6.83;;;6.13;;
3443;SDS011;1736;52.068;6.968;2023-03-19T09:26:36;8.77;;;7.30;;
3443;SDS011;1736;52.068;6.968;2023-03-19T09:29:02;8.47;;;6.77;;
3443;SDS011;1736;52.068;6.968;2023-03-19T09:31:29;9.43;;;6.53;;
3443;SDS011;1736;52.068;6.968;2023-03-19T09:33:56;7.03;;;6.33;;
3443;SDS011;1736;52.068;6.968;2023-03-19T09:36:24;8.23;;;6.70;;
3443;SDS011;1736;52.068;6.968;2023-03-19T09:38:51;8.03;;;6.47;;
3443;SDS011;1736;52.068;6.968;2023-03-19T09:41:19;7.20;;;6.33;;
3443;SDS011;1736;52.068;6.968;2023-03-19T09:43:56;8.83;;;6.40;;
3443;SDS011;1736;52.068;6.968;2023-03-19T09:46:26;9.20;;;6.17;;
3443;SDS011;1736;52.068;6.968;2023-03-19T09:48:59;7.50;;;6.10;;
3443;SDS011;1736;52.068;6.968;2023-03-19T09:51:34;9.10;;;5.23;;
3443;SDS011;1736;52.068;6.968;2023-03-19T09:54:12;8.50;;;5.53;;
3443;SDS011;1736;52.068;6.968;2023-03-19T09:56:47;6.33;;;5.13;;
3443;SDS011;1736;52.068;6.968;2023-03-19T09:59:14;5.00;;;4.50;;
3443;SDS011;1736;52.068;6.968;2023-03-19T10:01:41;7.53;;;5.13;;
3443;SDS011;1736;52.068;6.968;2023-03-19T10:04:18;9.13;;;5.77;;
3443;SDS011;1736;52.068;6.968;2023-03-19T10:07:05;6.40;;;5.10;;
3443;SDS011;1736;52.068;6.968;2023-03-19T10:09:43;6.70;;;4.70;;
3443;SDS011;1736;52.068;6.968;2023-03-19T10:12:21;6.30;;;5.33;;
3443;SDS011;1736;52.068;6.968;2023-03-19T10:15:03;6.30;;;5.37;;
3443;SDS011;1736;52.068;6.968;2023-03-19T10:17:41;6.47;;;5.50;;
3443;SDS011;1736;52.068;6.968;2023-03-19T10:20:15;7.57;;;5.20;;
3443;SDS011;1736;52.068;6.968;2023-03-19T10:22:52;7.90;;;5.53;;
3443;SDS011;1736;52.068;6.968;2023-03-19T10:25:26;6.47;;;5.60;;
3443;SDS011;1736;52.068;6.968;2023-03-19T10:27:55;10.37;;;6.00;;
3443;SDS011;1736;52.068;6.968;2023-03-19T10:30:26;6.40;;;5.40;;
3443;SDS011;1736;52.068;6.968;2023-03-19T10:32:59;7.63;;;5.60;;
3443;SDS011;1736;52.068;6.968;2023-03-19T10:35:40;9.73;;;5.87;;
3443;SDS011;1736;52.068;6.968;2023-03-19T10:38:17;9.53;;;5.23;;
3443;SDS011;1736;52.068;6.968;2023-03-19T10:40:47;10.70;;;6.77;;
3443;SDS011;1736;52.068;6.968;2023-03-19T10:43:27;7.60;;;5.83;;
3443;SDS011;1736;52.068;6.968;2023-03-19T10:45:58;7.83;;;5.90;;
3443;SDS011;1736;52.068;6.968;2023-03-19T10:48:25;8.57;;;5.53;;
3443;SDS011;1736;52.068;6.968;2023-03-19T10:50:53;10.03;;;6.27;;
3443;SDS011;1736;52.068;6.968;2023-03-19T10:53:28;10.80;;;6.50;;
3443;SDS011;1736;52.068;6.968;2023-03-19T10:55:59;7.00;;;5.60;;
3443;SDS011;1736;52.068;6.968;2023-03-19T10:58:28;6.20;;;4.70;;
3443;SDS011;1736;52.068;6.968;2023-03-19T11:00:57;6.53;;;5.60;;
3443;SDS011;1736;52.068;6.968;2023-03-19T11:03:31;7.80;;;4.90;;
3443;SDS011;1736;52.068;6.968;2023-03-19T11:06:15;7.07;;;5.57;;
3443;SDS011;1736;52.068;6.968;2023-03-19T11:08:49;6.40;;;5.17;;
3443;SDS011;1736;52.068;6.968;2023-03-19T11:11:24;7.43;;;5.93;;
3443;SDS011;1736;52.068;6.968;2023-03-19T11:13:52;5.33;;;4.80;;
3443;SDS011;1736;52.068;6.968;2023-03-19T11:16:19;5.70;;;5.10;;
3443;SDS011;1736;52.068;6.968;2023-03-19T11:18:46;5.03;;;4.53;;
3443;SDS011;1736;52.068;6.968;2023-03-19T11:21:21;5.60;;;5.00;;
3443;SDS011;1736;52.068;6.968;2023-03-19T11:23:57;6.60;;;5.10;;
3443;SDS011;1736;52.068;6.968;2023-03-19T11:26:26;5.20;;;4.70;;
3443;SDS011;1736;52.068;6.968;2023-03-19T11:28:53;4.93;;;4.43;;
3443;SDS011;1736;52.068;6.968;2023-03-19T11:31:27;4.70;;;4.20;;
3443;SDS011;1736;52.068;6.968;2023-03-19T11:34:14;5.37;;;4.83;;
3443;SDS011;1736;52.068;6.968;2023-03-19T11:36:51;3.90;;;3.53;;
3443;SDS011;1736;52.068;6.968;2023-03-19T11:39:29;5.43;;;4.60;;
3443;SDS011;1736;52.068;6.968;2023-03-19T11:42:10;5.70;;;3.90;;
3443;SDS011;1736;52.068;6.968;2023-03-19T11:45:00;4.93;;;4.00;;
3443;SDS011;1736;52.068;6.968;2023-03-19T11:47:36;7.90;;;4.60;;
3443;SDS011;1736;52.068;6.968;2023-03-19T11:50:15;4.90;;;3.97;;
3443;SDS011;1736;52.068;6.968;2023-03-19T11:52:52;8.40;;;4.70;;
3443;SDS011;1736;52.068;6.968;2023-03-19T11:55:29;4.43;;;4.03;;
3443;SDS011;1736;52.068;6.968;2023-03-19T11:58:16;6.70;;;5.20;;
3443;SDS011;1736;52.068;6.968;2023-03-19T12:00:55;9.67;;;5.10;;
3443;SDS011;1736;52.068;6.968;2023-03-19T12:06:27;5.43;;;4.23;;
3443;SDS011;1736;52.068;6.968;2023-03-19T12:09:02;4.73;;;4.10;;
3443;SDS011;1736;52.068;6.968;2023-03-19T12:11:38;6.27;;;4.97;;
3443;SDS011;1736;52.068;6.968;2023-03-19T12:14:24;4.83;;;4.00;;
3443;SDS011;1736;52.068;6.968;2023-03-19T12:17:02;4.50;;;4.00;;
3443;SDS011;1736;52.068;6.968;2023-03-19T12:19:47;4.80;;;4.30;;
3443;SDS011;1736;52.068;6.968;2023-03-19T12:22:22;4.80;;;3.83;;
3443;SDS011;1736;52.068;6.968;2023-03-19T12:25:05;6.60;;;4.53;;
3443;SDS011;1736;52.068;6.968;2023-03-19T12:27:45;5.27;;;4.33;;
3443;SDS011;1736;52.068;6.968;2023-03-19T12:30:21;8.23;;;4.70;;
3443;SDS011;1736;52.068;6.968;2023-03-19T12:32:58;7.87;;;5.20;;
3443;SDS011;1736;52.068;6.968;2023-03-19T12:35:36;4.83;;;4.20;;
3443;SDS011;1736;52.068;6.968;2023-03-19T12:38:05;8.17;;;4.57;;
3443;SDS011;1736;52.068;6.968;2023-03-19T12:40:38;7.50;;;5.20;;
3443;SDS011;1736;52.068;6.968;2023-03-19T12:43:13;5.67;;;4.50;;
3443;SDS011;1736;52.068;6.968;2023-03-19T12:45:44;7.63;;;5.40;;
3443;SDS011;1736;52.068;6.968;2023-03-19T12:48:14;5.83;;;4.07;;
3443;SDS011;1736;52.068;6.968;2023-03-19T12:50:44;5.63;;;4.73;;
3443;SDS011;1736;52.068;6.968;2023-03-19T12:53:17;7.47;;;4.70;;
3443;SDS011;1736;52.068;6.968;2023-03-19T12:55:54;5.70;;;4.30;;
3443;SDS011;1736;52.068;6.968;2023-03-19T12:58:27;6.13;;;5.00;;
3443;SDS011;1736;52.068;6.968;2023-03-19T13:01:04;5.07;;;3.97;;
3443;SDS011;1736;52.068;6.968;2023-03-19T13:03:36;4.67;;;3.50;;
3443;SDS011;1736;52.068;6.968;2023-03-19T13:06:05;5.07;;;4.53;;
3443;SDS011;1736;52.068;6.968;2023-03-19T13:08:37;6.47;;;4.17;;
3443;SDS011;1736;52.068;6.968;2023-03-19T13:11:09;5.20;;;3.67;;
3443;SDS011;1736;52.068;6.968;2023-03-19T13:13:41;4.30;;;3.87;;
3443;SDS011;1736;52.068;6.968;2023-03-19T13:16:16;4.60;;;3.77;;
3443;SDS011;1736;52.068;6.968;2023-03-19T13:18:57;3.90;;;3.50;;
3443;SDS011;1736;52.068;6.968;2023-03-19T13:21:36;5.33;;;3.90;;
3443;SDS011;1736;52.068;6.968;2023-03-19T13:24:06;4.20;;;3.53;;
3443;SDS011;1736;52.068;6.968;2023-03-19T13:26:41;3.73;;;3.33;;
3443;SDS011;1736;52.068;6.968;2023-03-19T13:29:13;3.57;;;3.27;;
3443;SDS011;1736;52.068;6.968;2023-03-19T13:31:44;3.00;;;2.70;;
3443;SDS011;1736;52.068;6.968;2023-03-19T13:34:18;3.20;;;2.90;;
3443;SDS011;1736;52.068;6.968;2023-03-19T13:36:50;3.97;;;2.80;;
3443;SDS011;1736;52.068;6.968;2023-03-19T13:39:20;3.57;;;2.67;;
3443;SDS011;1736;52.068;6.968;2023-03-19T13:41:52;5.23;;;3.13;;
3443;SDS011;1736;52.068;6.968;2023-03-19T13:44:34;2.80;;;2.60;;
3443;SDS011;1736;52.068;6.968;2023-03-19T13:50:10;3.00;;;2.70;;
3443;SDS011;1736;52.068;6.968;2023-03-19T13:52:49;2.70;;;2.50;;
3443;SDS011;1736;52.068;6.968;2023-03-19T13:55:27;3.73;;;2.30;;
3443;SDS011;1736;52.068;6.968;2023-03-19T13:57:58;3.30;;;3.00;;
3443;SDS011;1736;52.068;6.968;2023-03-19T14:00:56;3.10;;;2.33;;
3443;SDS011;1736;52.068;6.968;2023-03-19T14:03:25;2.30;;;2.10;;
3443;SDS011;1736;52.068;6.968;2023-03-19T14:05:54;2.30;;;2.10;;
3443;SDS011;1736;52.068;6.968;2023-03-19T14:08:23;2.50;;;2.30;;
3443;SDS011;1736;52.068;6.968;2023-03-19T14:10:52;2.57;;;2.37;;
3443;SDS011;1736;52.068;6.968;2023-03-19T14:13:25;2.40;;;2.20;;
3443;SDS011;1736;52.068;6.968;2023-03-19T14:16:02;2.30;;;1.73;;
3443;SDS011;1736;52.068;6.968;2023-03-19T14:18:32;2.07;;;1.90;;
3443;SDS011;1736;52.068;6.968;2023-03-19T14:21:05;2.03;;;1.93;;
3443;SDS011;1736;52.068;6.968;2023-03-19T14:23:37;3.43;;;2.23;;
3443;SDS011;1736;52.068;6.968;2023-03-19T14:26:05;2.77;;;2.53;;
3443;SDS011;1736;52.068;6.968;2023-03-19T14:28:43;4.27;;;2.40;;
3443;SDS011;1736;52.068;6.968;2023-03-19T14:31:20;3.37;;;2.97;;
3443;SDS011;1736;52.068;6.968;2023-03-19T14:33:51;6.67;;;3.80;;
3443;SDS011;1736;52.068;6.968;2023-03-19T14:36:21;2.93;;;2.73;;
3443;SDS011;1736;52.068;6.968;2023-03-19T14:38:48;5.13;;;3.23;;
3443;SDS011;1736;52.068;6.968;2023-03-19T14:41:18;4.90;;;3.30;;
3443;SDS011;1736;52.068;6.968;2023-03-19T14:43:53;3.30;;;3.03;;
3443;SDS011;1736;52.068;6.968;2023-03-19T14:46:40;4.50;;;3.33;;
3443;SDS011;1736;52.068;6.968;2023-03-19T14:49:25;5.80;;;3.60;;
3443;SDS011;1736;52.068;6.968;2023-03-19T14:52:20;8.57;;;3.60;;
3443;SDS011;1736;52.068;6.968;2023-03-19T14:54:49;4.43;;;3.37;;
3443;SDS011;1736;52.068;6.968;2023-03-19T14:57:19;3.90;;;3.17;;
3443;SDS011;1736;52.068;6.968;2023-03-19T14:59:47;5.10;;;3.60;;
3443;SDS011;1736;52.068;6.968;2023-03-19T15:02:30;4.17;;;3.10;;
3443;SDS011;1736;52.068;6.968;2023-03-19T15:05:00;3.93;;;3.50;;
3443;SDS011;1736;52.068;6.968;2023-03-19T15:07:31;4.90;;;3.50;;
3443;SDS011;1736;52.068;6.968;2023-03-19T15:10:03;5.30;;;3.07;;
3443;SDS011;1736;52.068;6.968;2023-03-19T15:12:40;3.90;;;3.43;;
3443;SDS011;1736;52.068;6.968;2023-03-19T15:15:23;2.83;;;2.50;;
3443;SDS011;1736;52.068;6.968;2023-03-19T15:17:59;3.70;;;2.97;;
3443;SDS011;1736;52.068;6.968;2023-03-19T15:20:29;4.73;;;3.03;;
3443;SDS011;1736;52.068;6.968;2023-03-19T15:23:00;3.67;;;3.10;;
3443;SDS011;1736;52.068;6.968;2023-03-19T15:25:29;3.77;;;3.03;;
3443;SDS011;1736;52.068;6.968;2023-03-19T15:28:06;3.50;;;3.20;;
3443;SDS011;1736;52.068;6.968;2023-03-19T15:30:34;4.77;;;3.33;;